createdAt,value
2022-10-17T00:00:41.774Z,0
2022-10-17T00:01:41.947Z,0
2022-10-17T00:02:42.214Z,0
2022-10-17T00:03:42.343Z,0
2022-10-17T00:04:42.473Z,0
2022-10-17T00:05:42.673Z,0
2022-10-17T00:06:42.802Z,0
2022-10-17T00:07:42.927Z,0
2022-10-17T00:08:43.054Z,0
2022-10-17T00:09:43.187Z,0
2022-10-17T00:10:43.310Z,0
2022-10-17T00:11:43.443Z,0
2022-10-17T00:12:43.562Z,0
2022-10-17T00:13:43.688Z,0
2022-10-17T00:14:43.813Z,0
2022-10-17T00:15:43.944Z,0
2022-10-17T00:16:44.084Z,0
2022-10-17T00:17:44.210Z,0
2022-10-17T00:18:44.333Z,0
2022-10-17T00:19:44.461Z,0
2022-10-17T00:20:44.591Z,0
2022-10-17T00:21:44.714Z,0
2022-10-17T00:22:44.836Z,0
2022-10-17T00:23:44.958Z,0
2022-10-17T00:24:45.087Z,0
2022-10-17T00:25:45.231Z,0
2022-10-17T00:26:45.355Z,0
2022-10-17T00:27:45.483Z,0
2022-10-17T00:28:45.655Z,0
2022-10-17T00:29:45.938Z,0
2022-10-17T00:30:46.067Z,0
2022-10-17T00:31:46.262Z,0
2022-10-17T00:32:46.551Z,0
2022-10-17T00:33:46.678Z,0
2022-10-17T00:34:46.805Z,0
2022-10-17T00:35:46.935Z,0
2022-10-17T00:36:47.063Z,0
2022-10-17T00:37:47.193Z,0
2022-10-17T00:38:47.313Z,0
2022-10-17T00:39:47.435Z,0
2022-10-17T00:40:47.601Z,0
2022-10-17T00:41:47.853Z,0
2022-10-17T00:42:47.977Z,0
2022-10-17T00:43:48.101Z,0
2022-10-17T00:44:48.233Z,0
2022-10-17T00:45:48.364Z,0
2022-10-17T00:46:48.489Z,0
2022-10-17T00:47:48.644Z,0
2022-10-17T00:48:48.775Z,0
2022-10-17T00:49:48.956Z,0
2022-10-17T00:50:49.183Z,0
2022-10-17T00:51:49.310Z,0
2022-10-17T00:52:49.432Z,0
2022-10-17T00:53:49.559Z,0
2022-10-17T00:54:49.688Z,0
2022-10-17T00:55:49.818Z,0
2022-10-17T00:56:49.945Z,0
2022-10-17T00:57:50.069Z,0
2022-10-17T00:58:50.193Z,0
2022-10-17T00:59:50.319Z,0
2022-10-17T01:00:50.449Z,0
2022-10-17T01:01:50.584Z,0
2022-10-17T01:02:50.713Z,0
2022-10-17T01:03:50.836Z,0
2022-10-17T01:04:50.962Z,0
2022-10-17T01:05:51.105Z,0
2022-10-17T01:06:51.226Z,0
2022-10-17T01:07:51.352Z,0
2022-10-17T01:08:51.472Z,0
2022-10-17T01:09:51.600Z,0
2022-10-17T01:10:51.720Z,0
2022-10-17T01:11:51.849Z,0
2022-10-17T01:12:51.983Z,0
2022-10-17T01:13:52.111Z,0
2022-10-17T01:14:52.244Z,0
2022-10-17T01:15:52.390Z,0
2022-10-17T01:16:52.518Z,0
2022-10-17T01:17:52.648Z,0
2022-10-17T01:18:52.768Z,0
2022-10-17T01:19:52.905Z,0
2022-10-17T01:20:53.031Z,0
2022-10-17T01:21:53.160Z,0
2022-10-17T01:22:53.286Z,0
2022-10-17T01:23:53.411Z,0
2022-10-17T01:24:53.533Z,0
2022-10-17T01:25:53.675Z,0
2022-10-17T01:26:53.796Z,0
2022-10-17T01:27:53.926Z,0
2022-10-17T01:28:54.061Z,0
2022-10-17T01:29:54.191Z,0
2022-10-17T01:30:54.314Z,0
2022-10-17T01:31:54.448Z,0
2022-10-17T01:32:54.579Z,0
2022-10-17T01:33:54.710Z,0
2022-10-17T01:34:54.945Z,0
2022-10-17T01:35:55.081Z,0
2022-10-17T01:36:55.212Z,0
2022-10-17T01:37:55.350Z,0
2022-10-17T01:38:55.504Z,0
2022-10-17T01:39:55.631Z,0
2022-10-17T01:40:55.767Z,0
2022-10-17T01:41:55.919Z,0
2022-10-17T01:42:56.036Z,0
2022-10-17T01:43:56.147Z,0
2022-10-17T01:44:56.267Z,0
2022-10-17T01:45:56.394Z,0
2022-10-17T01:46:58.582Z,0
2022-10-17T01:47:58.729Z,0
2022-10-17T01:48:58.851Z,0
2022-10-17T01:49:58.974Z,0
2022-10-17T01:50:59.100Z,0
2022-10-17T01:51:59.241Z,0
2022-10-17T01:52:59.370Z,0
2022-10-17T01:53:59.494Z,0
2022-10-17T01:54:59.633Z,0
2022-10-17T01:55:59.772Z,0
2022-10-17T01:56:59.899Z,0
2022-10-17T01:58:00.019Z,0
2022-10-17T01:59:00.168Z,0
2022-10-17T02:00:00.296Z,0
2022-10-17T02:01:00.492Z,0
2022-10-17T02:02:00.721Z,0
2022-10-17T02:03:00.847Z,0
2022-10-17T02:04:00.974Z,0
2022-10-17T02:05:03.151Z,0
2022-10-17T02:06:03.274Z,0
2022-10-17T02:07:03.405Z,0
2022-10-17T02:08:03.529Z,0
2022-10-17T02:09:03.653Z,0
2022-10-17T02:10:03.780Z,0
2022-10-17T02:11:03.913Z,0
2022-10-17T02:12:04.039Z,0
2022-10-17T02:13:04.153Z,0
2022-10-17T02:14:04.306Z,0
2022-10-17T02:15:04.588Z,0
2022-10-17T02:16:04.706Z,0
2022-10-17T02:17:04.821Z,0
2022-10-17T02:18:04.931Z,0
2022-10-17T02:19:05.052Z,0
2022-10-17T02:20:05.169Z,0
2022-10-17T02:21:05.295Z,0
2022-10-17T02:22:05.421Z,0
2022-10-17T02:23:05.587Z,0
2022-10-17T02:24:05.838Z,0
2022-10-17T02:25:05.980Z,0
2022-10-17T02:26:06.108Z,0
2022-10-17T02:27:06.228Z,0
2022-10-17T02:28:06.362Z,0
2022-10-17T02:29:06.494Z,0
2022-10-17T02:30:06.619Z,0
2022-10-17T02:31:06.737Z,0
2022-10-17T02:32:06.866Z,0
2022-10-17T02:33:06.984Z,0
2022-10-17T02:34:07.108Z,0
2022-10-17T02:35:07.238Z,0
2022-10-17T02:36:07.368Z,0
2022-10-17T02:37:07.496Z,0
2022-10-17T02:38:07.625Z,0
2022-10-17T02:39:07.746Z,0
2022-10-17T02:40:07.871Z,0
2022-10-17T02:41:07.994Z,0
2022-10-17T02:42:08.122Z,0
2022-10-17T02:43:08.246Z,0
2022-10-17T02:44:08.375Z,0
2022-10-17T02:45:08.508Z,0
2022-10-17T02:46:08.636Z,0
2022-10-17T02:47:08.764Z,0
2022-10-17T02:48:08.885Z,0
2022-10-17T02:49:09.015Z,0
2022-10-17T02:50:09.141Z,0
2022-10-17T02:51:09.266Z,0
2022-10-17T02:52:09.391Z,0
2022-10-17T02:53:09.515Z,0
2022-10-17T02:54:09.646Z,0
2022-10-17T02:55:09.776Z,0
2022-10-17T02:56:09.897Z,0
2022-10-17T02:57:10.021Z,0
2022-10-17T02:58:10.143Z,0
2022-10-17T02:59:10.266Z,0
2022-10-17T03:00:10.398Z,0
2022-10-17T03:01:10.564Z,0
2022-10-17T03:02:10.867Z,0
2022-10-17T03:03:10.992Z,0
2022-10-17T03:04:11.118Z,0
2022-10-17T03:05:11.235Z,0
2022-10-17T03:06:11.358Z,0
2022-10-17T03:07:11.589Z,0
2022-10-17T03:08:11.720Z,0
2022-10-17T03:09:11.851Z,0
2022-10-17T03:10:11.981Z,0
2022-10-17T03:11:12.104Z,0
2022-10-17T03:12:12.232Z,0
2022-10-17T03:13:12.356Z,0
2022-10-17T03:14:12.484Z,0
2022-10-17T03:15:12.617Z,0
2022-10-17T03:16:12.744Z,0
2022-10-17T03:17:12.870Z,0
2022-10-17T03:18:12.997Z,0
2022-10-17T03:19:13.137Z,0
2022-10-17T03:20:13.269Z,0
2022-10-17T03:21:13.393Z,0
2022-10-17T03:22:13.525Z,0
2022-10-17T03:23:13.690Z,0
2022-10-17T03:24:13.815Z,0
2022-10-17T03:25:13.945Z,0
2022-10-17T03:26:14.072Z,0
2022-10-17T03:27:14.202Z,0
2022-10-17T03:28:14.330Z,0
2022-10-17T03:29:14.450Z,0
2022-10-17T03:30:14.574Z,0
2022-10-17T03:31:14.696Z,0
2022-10-17T03:32:14.815Z,0
2022-10-17T03:33:14.940Z,0
2022-10-17T03:34:15.070Z,0
2022-10-17T03:35:15.289Z,0
2022-10-17T03:36:15.414Z,0
2022-10-17T03:37:15.540Z,0
2022-10-17T03:38:15.659Z,0
2022-10-17T03:39:15.787Z,0
2022-10-17T03:40:15.917Z,0
2022-10-17T03:41:16.055Z,0
2022-10-17T03:42:16.188Z,0
2022-10-17T03:43:16.321Z,0
2022-10-17T03:44:16.456Z,0
2022-10-17T03:45:16.583Z,0
2022-10-17T03:46:18.810Z,0
2022-10-17T03:47:19.312Z,0
2022-10-17T03:48:19.439Z,0
2022-10-17T03:49:19.563Z,0
2022-10-17T03:50:19.683Z,0
2022-10-17T03:51:19.810Z,0
2022-10-17T03:52:19.937Z,0
2022-10-17T03:53:20.069Z,0
2022-10-17T03:54:20.202Z,0
2022-10-17T03:55:20.329Z,0
2022-10-17T03:56:20.454Z,0
2022-10-17T03:57:20.698Z,0
2022-10-17T03:58:20.826Z,0
2022-10-17T03:59:20.945Z,0
2022-10-17T04:00:21.067Z,0
2022-10-17T04:01:21.328Z,0
2022-10-17T04:02:21.637Z,0
2022-10-17T04:03:21.769Z,0
2022-10-17T04:04:21.893Z,0
2022-10-17T04:05:22.038Z,0
2022-10-17T04:06:22.167Z,0
2022-10-17T04:07:22.333Z,0
2022-10-17T04:08:22.676Z,0
2022-10-17T04:09:22.803Z,0
2022-10-17T04:10:22.928Z,0
2022-10-17T04:11:23.060Z,0
2022-10-17T04:12:23.188Z,0
2022-10-17T04:13:23.331Z,0
2022-10-17T04:14:23.469Z,0
2022-10-17T04:15:23.599Z,0
2022-10-17T04:16:23.730Z,0
2022-10-17T04:17:23.866Z,0
2022-10-17T04:18:23.994Z,0
2022-10-17T04:19:24.129Z,0
2022-10-17T04:20:24.262Z,0
2022-10-17T04:21:24.394Z,0
2022-10-17T04:22:24.520Z,0
2022-10-17T04:23:24.649Z,0
2022-10-17T04:24:24.770Z,0
2022-10-17T04:25:24.893Z,0
2022-10-17T04:26:25.028Z,0
2022-10-17T04:27:25.153Z,0
2022-10-17T04:28:25.374Z,0
2022-10-17T04:29:25.897Z,0
2022-10-17T04:30:26.023Z,0
2022-10-17T04:31:26.149Z,0
2022-10-17T04:32:26.487Z,0
2022-10-17T04:33:27.443Z,0
2022-10-17T04:34:27.598Z,0
2022-10-17T04:35:27.734Z,0
2022-10-17T04:36:27.856Z,0
2022-10-17T04:37:27.982Z,0
2022-10-17T04:38:28.585Z,0
2022-10-17T04:39:28.969Z,0
2022-10-17T04:40:29.109Z,0
2022-10-17T04:41:29.283Z,0
2022-10-17T04:42:29.755Z,0
2022-10-17T04:43:30.705Z,0
2022-10-17T04:44:30.894Z,0
2022-10-17T04:45:31.049Z,0
2022-10-17T04:46:31.176Z,0
2022-10-17T04:47:31.304Z,0
2022-10-17T04:48:31.426Z,0
2022-10-17T04:49:31.623Z,0
2022-10-17T04:50:31.973Z,0
2022-10-17T04:51:32.100Z,0
2022-10-17T04:52:32.550Z,0
2022-10-17T04:53:32.833Z,0
2022-10-17T04:54:32.956Z,0
2022-10-17T04:55:33.088Z,0
2022-10-17T04:56:33.222Z,0
2022-10-17T04:57:33.347Z,0
2022-10-17T04:58:33.478Z,0
2022-10-17T04:59:33.605Z,0
2022-10-17T05:00:33.822Z,0
2022-10-17T05:01:34.099Z,0
2022-10-17T05:02:34.232Z,0
2022-10-17T05:03:34.366Z,0
2022-10-17T05:04:34.491Z,0
2022-10-17T05:05:34.626Z,0
2022-10-17T05:06:34.767Z,0
2022-10-17T05:07:34.893Z,0
2022-10-17T05:08:35.023Z,0
2022-10-17T05:09:35.146Z,0
2022-10-17T05:10:35.280Z,0
2022-10-17T05:11:35.411Z,0
2022-10-17T05:12:35.544Z,0
2022-10-17T05:13:35.669Z,0
2022-10-17T05:14:35.793Z,0
2022-10-17T05:15:35.918Z,0
2022-10-17T05:16:36.050Z,0
2022-10-17T05:17:36.178Z,0
2022-10-17T05:18:36.300Z,0
2022-10-17T05:19:36.424Z,0
2022-10-17T05:20:36.556Z,1
2022-10-17T05:21:36.678Z,2
2022-10-17T05:22:38.217Z,4
2022-10-17T05:23:42.553Z,5
2022-10-17T05:24:42.681Z,7
2022-10-17T05:25:42.813Z,9
2022-10-17T05:26:42.938Z,10
2022-10-17T05:27:43.068Z,11
2022-10-17T05:28:43.196Z,15
2022-10-17T05:29:43.543Z,17
2022-10-17T05:30:43.669Z,21
2022-10-17T05:31:43.797Z,27
2022-10-17T05:32:43.931Z,35
2022-10-17T05:33:44.060Z,43
2022-10-17T05:34:44.192Z,49
2022-10-17T05:35:44.312Z,61
2022-10-17T05:36:44.438Z,69
2022-10-17T05:37:44.565Z,76
2022-10-17T05:38:44.689Z,84
2022-10-17T05:39:47.867Z,94.96
2022-10-17T05:40:51.863Z,110
2022-10-17T05:41:51.988Z,110
2022-10-17T05:42:52.119Z,130
2022-10-17T05:43:52.253Z,130
2022-10-17T05:44:52.376Z,130
2022-10-17T05:45:52.506Z,130
2022-10-17T05:46:52.628Z,150
2022-10-17T05:47:52.754Z,150
2022-10-17T05:48:52.884Z,169.92
2022-10-17T05:49:53.015Z,189.92
2022-10-17T05:50:53.202Z,209.92
2022-10-17T05:51:53.327Z,209.92
2022-10-17T05:52:53.451Z,240
2022-10-17T05:53:53.586Z,269.92
2022-10-17T05:54:53.733Z,269.92
2022-10-17T05:55:53.857Z,300
2022-10-17T05:56:53.985Z,300
2022-10-17T05:57:54.117Z,329.92
2022-10-17T05:58:57.428Z,329.92
2022-10-17T06:00:01.395Z,369.92
2022-10-17T06:01:01.549Z,409.92
2022-10-17T06:02:01.722Z,409.92
2022-10-17T06:03:02.080Z,409.92
2022-10-17T06:04:02.335Z,459.84
2022-10-17T06:05:02.509Z,459.84
2022-10-17T06:06:02.932Z,509.76
2022-10-17T06:07:03.067Z,569.92
2022-10-17T06:08:03.199Z,569.92
2022-10-17T06:09:03.331Z,629.76
2022-10-17T06:10:03.457Z,699.52
2022-10-17T06:11:04.881Z,769.92
2022-10-17T06:12:10.922Z,809.6
2022-10-17T06:13:11.060Z,859.52
2022-10-17T06:14:11.187Z,949.76
2022-10-17T06:15:11.317Z,949.76
2022-10-17T06:16:11.441Z,1059.84
2022-10-17T06:17:15.710Z,1059.84
2022-10-17T06:18:16.632Z,1179.52
2022-10-17T06:19:16.761Z,1179.52
2022-10-17T06:20:16.882Z,1299.84
2022-10-17T06:21:17.015Z,1299.84
2022-10-17T06:22:17.144Z,1299.84
2022-10-17T06:23:17.266Z,1299.84
2022-10-17T06:24:17.388Z,1440
2022-10-17T06:25:17.562Z,1440
2022-10-17T06:26:17.909Z,1440
2022-10-17T06:27:18.030Z,1600
2022-10-17T06:28:18.147Z,1600
2022-10-17T06:29:18.271Z,1600
2022-10-17T06:30:18.412Z,1760
2022-10-17T06:31:18.541Z,1760
2022-10-17T06:32:18.682Z,1760
2022-10-17T06:33:18.816Z,1760
2022-10-17T06:34:18.945Z,1939.2
2022-10-17T06:35:19.077Z,1939.2
2022-10-17T06:36:19.204Z,1939.2
2022-10-17T06:37:19.330Z,1939.2
2022-10-17T06:38:19.493Z,1939.2
2022-10-17T06:39:19.645Z,2138.88
2022-10-17T06:40:19.772Z,2138.88
2022-10-17T06:41:19.896Z,2138.88
2022-10-17T06:42:20.027Z,2138.88
2022-10-17T06:43:20.717Z,2138.88
2022-10-17T06:44:28.208Z,2359.04
2022-10-17T06:45:28.343Z,2359.04
2022-10-17T06:46:28.515Z,2359.04
2022-10-17T06:47:28.936Z,2359.04
2022-10-17T06:48:30.012Z,2359.04
2022-10-17T06:49:30.142Z,2599.68
2022-10-17T06:50:30.271Z,2599.68
2022-10-17T06:51:30.392Z,2599.68
2022-10-17T06:52:30.524Z,2599.68
2022-10-17T06:53:30.873Z,2599.68
2022-10-17T06:54:30.997Z,2599.68
2022-10-17T06:55:31.128Z,2859.52
2022-10-17T06:56:31.255Z,2859.52
2022-10-17T06:57:31.774Z,2859.52
2022-10-17T06:58:32.758Z,2859.52
2022-10-17T06:59:32.888Z,2859.52
2022-10-17T07:00:33.045Z,2859.52
2022-10-17T07:01:33.315Z,3159.04
2022-10-17T07:02:33.439Z,3159.04
2022-10-17T07:03:33.568Z,3159.04
2022-10-17T07:04:33.692Z,3159.04
2022-10-17T07:05:33.824Z,3159.04
2022-10-17T07:06:33.954Z,3159.04
2022-10-17T07:07:34.078Z,3159.04
2022-10-17T07:08:34.203Z,3159.04
2022-10-17T07:09:34.350Z,3159.04
2022-10-17T07:10:34.476Z,3159.04
2022-10-17T07:11:34.597Z,3479.04
2022-10-17T07:12:34.722Z,3479.04
2022-10-17T07:13:38.908Z,3479.04
2022-10-17T07:14:39.621Z,3578.88
2022-10-17T07:15:39.748Z,3578.88
2022-10-17T07:16:39.886Z,3578.88
2022-10-17T07:17:40.057Z,3578.88
2022-10-17T07:18:40.201Z,3578.88
2022-10-17T07:19:40.331Z,3840
2022-10-17T07:20:40.461Z,3840
2022-10-17T07:21:40.586Z,3840
2022-10-17T07:22:40.713Z,3840
2022-10-17T07:23:40.838Z,3840
2022-10-17T07:24:40.969Z,3840
2022-10-17T07:25:41.202Z,3840
2022-10-17T07:26:41.329Z,3840
2022-10-17T07:27:41.455Z,4239.36
2022-10-17T07:28:41.646Z,4239.36
2022-10-17T07:29:42.034Z,4239.36
2022-10-17T07:30:42.164Z,4239.36
2022-10-17T07:31:42.302Z,4679.68
2022-10-17T07:32:42.430Z,4679.68
2022-10-17T07:33:42.585Z,4679.68
2022-10-17T07:34:42.851Z,4679.68
2022-10-17T07:35:42.991Z,4679.68
2022-10-17T07:36:43.127Z,4679.68
2022-10-17T07:37:43.298Z,5158.4
2022-10-17T07:38:43.437Z,5158.4
2022-10-17T07:39:43.592Z,5158.4
2022-10-17T07:40:43.737Z,5158.4
2022-10-17T07:41:43.880Z,5158.4
2022-10-17T07:42:44.021Z,5158.4
2022-10-17T07:43:44.160Z,5158.4
2022-10-17T07:44:44.293Z,5158.4
2022-10-17T07:45:44.424Z,5158.4
2022-10-17T07:46:44.559Z,5158.4
2022-10-17T07:47:44.693Z,4718.08
2022-10-17T07:48:44.834Z,4718.08
2022-10-17T07:49:44.968Z,4718.08
2022-10-17T07:50:45.103Z,4718.08
2022-10-17T07:51:51.338Z,4718.08
2022-10-17T07:52:51.472Z,4718.08
2022-10-17T07:53:51.610Z,4718.08
2022-10-17T07:54:51.741Z,4718.08
2022-10-17T07:55:51.875Z,5199.36
2022-10-17T07:56:52.013Z,5199.36
2022-10-17T07:57:52.144Z,5199.36
2022-10-17T07:58:52.312Z,5199.36
2022-10-17T07:59:52.564Z,6318.08
2022-10-17T08:00:52.763Z,8335.36
2022-10-17T08:01:53.316Z,9518.08
2022-10-17T08:02:53.450Z,11796.48
2022-10-17T08:03:53.582Z,13199.36
2022-10-17T08:04:53.711Z,14592
2022-10-17T08:05:53.854Z,14592
2022-10-17T08:07:00.590Z,16199.68
2022-10-17T08:08:26.918Z,16998.4
2022-10-17T08:09:27.049Z,16998.4
2022-10-17T08:10:27.188Z,16998.4
2022-10-17T08:11:27.311Z,16998.4
2022-10-17T08:12:27.639Z,16998.4
2022-10-17T08:13:29.070Z,14397.44
2022-10-17T08:14:29.196Z,14397.44
2022-10-17T08:15:30.957Z,14397.44
2022-10-17T08:16:32.395Z,14397.44
2022-10-17T08:17:32.518Z,14397.44
2022-10-17T08:18:32.639Z,14397.44
2022-10-17T08:19:32.769Z,15994.88
2022-10-17T08:20:32.897Z,17592.32
2022-10-17T08:21:33.024Z,17592.32
2022-10-17T08:22:33.152Z,17592.32
2022-10-17T08:23:33.273Z,17592.32
2022-10-17T08:24:33.404Z,17592.32
2022-10-17T08:25:33.529Z,17592.32
2022-10-17T08:26:33.659Z,17592.32
2022-10-17T08:27:33.788Z,17592.32
2022-10-17T08:28:33.937Z,17592.32
2022-10-17T08:29:34.202Z,15595.52
2022-10-17T08:30:34.331Z,12390.4
2022-10-17T08:31:34.455Z,12390.4
2022-10-17T08:32:34.601Z,13793.28
2022-10-17T08:33:34.727Z,17192.96
2022-10-17T08:34:34.851Z,18995.2
2022-10-17T08:35:34.979Z,18995.2
2022-10-17T08:36:35.113Z,18995.2
2022-10-17T08:37:35.240Z,18995.2
2022-10-17T08:38:36.029Z,20992
2022-10-17T08:39:40.366Z,23388.16
2022-10-17T08:40:40.494Z,23388.16
2022-10-17T08:41:40.622Z,25784.32
2022-10-17T08:42:40.749Z,25784.32
2022-10-17T08:43:40.876Z,25784.32
2022-10-17T08:44:41.005Z,25784.32
2022-10-17T08:45:41.130Z,28385.28
2022-10-17T08:46:41.253Z,28385.28
2022-10-17T08:47:41.378Z,28385.28
2022-10-17T08:48:42.705Z,28385.28
2022-10-17T08:49:46.948Z,29798.4
2022-10-17T08:50:47.135Z,29798.4
2022-10-17T08:51:47.263Z,29798.4
2022-10-17T08:52:47.386Z,29798.4
2022-10-17T08:53:47.505Z,29798.4
2022-10-17T08:54:47.628Z,29798.4
2022-10-17T08:55:47.755Z,31395.84
2022-10-17T08:56:49.128Z,27996.16
2022-10-17T08:57:49.996Z,27996.16
2022-10-17T08:58:50.120Z,27996.16
2022-10-17T08:59:50.247Z,27996.16
2022-10-17T09:00:50.384Z,27996.16
2022-10-17T09:01:50.515Z,30781.44
2022-10-17T09:02:50.695Z,24391.68
2022-10-17T09:03:50.958Z,21585.92
2022-10-17T09:04:51.081Z,19394.56
2022-10-17T09:05:51.209Z,21585.92
2022-10-17T09:06:51.331Z,21585.92
2022-10-17T09:07:51.453Z,23797.76
2022-10-17T09:08:51.582Z,26193.92
2022-10-17T09:09:51.709Z,26193.92
2022-10-17T09:10:51.832Z,32583.68
2022-10-17T09:11:51.953Z,32583.68
2022-10-17T09:12:52.094Z,32583.68
2022-10-17T09:13:52.218Z,32583.68
2022-10-17T09:14:52.346Z,29184
2022-10-17T09:15:52.474Z,26193.92
2022-10-17T09:16:52.609Z,23388.16
2022-10-17T09:17:52.748Z,18391.04
2022-10-17T09:18:52.883Z,18391.04
2022-10-17T09:19:53.008Z,22794.24
2022-10-17T09:20:53.124Z,22794.24
2022-10-17T09:21:53.245Z,27791.36
2022-10-17T09:22:53.816Z,30597.12
2022-10-17T09:23:56.129Z,30597.12
2022-10-17T09:25:16.158Z,24391.68
2022-10-17T09:26:16.284Z,21585.92
2022-10-17T09:27:16.408Z,21585.92
2022-10-17T09:28:16.530Z,21585.92
2022-10-17T09:29:16.659Z,21585.92
2022-10-17T09:30:21.411Z,21585.92
2022-10-17T09:31:46.255Z,17397.76
2022-10-17T09:32:46.483Z,17397.76
2022-10-17T09:33:54.118Z,17397.76
2022-10-17T09:34:55.582Z,19394.56
2022-10-17T09:35:55.708Z,24391.68
2022-10-17T09:36:55.828Z,27791.36
2022-10-17T09:37:55.955Z,30781.44
2022-10-17T09:38:56.091Z,30781.44
2022-10-17T09:39:56.229Z,30781.44
2022-10-17T09:40:57.162Z,30781.44
2022-10-17T09:41:57.495Z,30781.44
2022-10-17T09:42:57.616Z,24391.68
2022-10-17T09:43:57.746Z,24391.68
2022-10-17T09:44:57.873Z,24391.68
2022-10-17T09:45:57.997Z,24391.68
2022-10-17T09:46:58.130Z,24391.68
2022-10-17T09:47:59.519Z,24391.68
2022-10-17T09:49:04.289Z,22179.84
2022-10-17T09:50:04.419Z,22179.84
2022-10-17T09:51:15.033Z,22179.84
2022-10-17T09:52:26.678Z,24780.8
2022-10-17T09:53:27.937Z,22589.44
2022-10-17T09:54:28.056Z,20193.28
2022-10-17T09:55:28.171Z,17991.68
2022-10-17T09:56:28.293Z,17991.68
2022-10-17T09:57:28.417Z,17991.68
2022-10-17T09:58:28.546Z,17991.68
2022-10-17T09:59:28.686Z,19793.92
2022-10-17T10:00:28.887Z,22179.84
2022-10-17T10:01:29.225Z,24596.48
2022-10-17T10:02:29.629Z,27586.56
2022-10-17T10:03:31.100Z,27586.56
2022-10-17T10:04:41.520Z,27586.56
2022-10-17T10:06:08.925Z,26787.84
2022-10-17T10:07:09.140Z,21995.52
2022-10-17T10:08:09.265Z,19793.92
2022-10-17T10:09:09.418Z,17797.12
2022-10-17T10:10:09.669Z,17797.12
2022-10-17T10:11:13.735Z,17797.12
2022-10-17T10:12:14.300Z,19998.72
2022-10-17T10:13:14.423Z,22794.24
2022-10-17T10:14:14.583Z,25190.4
2022-10-17T10:15:14.711Z,25190.4
2022-10-17T10:16:14.868Z,27791.36
2022-10-17T10:17:15.002Z,27791.36
2022-10-17T10:18:15.180Z,27791.36
2022-10-17T10:19:15.310Z,27791.36
2022-10-17T10:20:15.435Z,27791.36
2022-10-17T10:21:15.560Z,27791.36
2022-10-17T10:22:15.686Z,30597.12
2022-10-17T10:23:15.814Z,30597.12
2022-10-17T10:24:15.947Z,30597.12
2022-10-17T10:25:16.077Z,30597.12
2022-10-17T10:26:18.926Z,30597.12
2022-10-17T10:27:21.435Z,27381.76
2022-10-17T10:28:21.929Z,27381.76
2022-10-17T10:29:22.200Z,27381.76
2022-10-17T10:30:22.339Z,27381.76
2022-10-17T10:31:22.462Z,27381.76
2022-10-17T10:32:22.590Z,30187.52
2022-10-17T10:33:22.722Z,30187.52
2022-10-17T10:34:22.847Z,30187.52
2022-10-17T10:35:22.981Z,30187.52
2022-10-17T10:36:23.221Z,30187.52
2022-10-17T10:37:23.602Z,30187.52
2022-10-17T10:38:23.725Z,30187.52
2022-10-17T10:39:23.847Z,30187.52
2022-10-17T10:40:23.973Z,30187.52
2022-10-17T10:41:24.101Z,33587.2
2022-10-17T10:42:24.227Z,33587.2
2022-10-17T10:43:24.356Z,29982.72
2022-10-17T10:44:24.500Z,29982.72
2022-10-17T10:45:43.121Z,33198.08
2022-10-17T10:46:49.321Z,41594.88
2022-10-17T10:47:49.455Z,45998.08
2022-10-17T10:48:49.587Z,45998.08
2022-10-17T10:49:49.710Z,45998.08
2022-10-17T10:50:49.842Z,45998.08
2022-10-17T10:51:50.002Z,51773.44
2022-10-17T10:52:50.154Z,56975.36
2022-10-17T10:53:50.311Z,56975.36
2022-10-17T10:54:50.621Z,62996.48
2022-10-17T10:55:50.744Z,62996.48
2022-10-17T10:56:52.555Z,62996.48
2022-10-17T10:57:53.860Z,62996.48
2022-10-17T10:58:53.985Z,62996.48
2022-10-17T10:59:54.108Z,62996.48
2022-10-17T11:00:54.307Z,62996.48
2022-10-17T11:01:54.691Z,69591.04
2022-10-17T11:02:54.828Z,69591.04
2022-10-17T11:03:54.960Z,69591.04
2022-10-17T11:04:55.094Z,69591.04
2022-10-17T11:05:55.216Z,69591.04
2022-10-17T11:06:55.341Z,69591.04
2022-10-17T11:07:55.487Z,69591.04
2022-10-17T11:08:55.613Z,69591.04
2022-10-17T11:09:55.740Z,69591.04
2022-10-17T11:10:55.868Z,69591.04
2022-10-17T11:11:55.999Z,75161.6
2022-10-17T11:12:56.129Z,75161.6
2022-10-17T11:13:56.258Z,75161.6
2022-10-17T11:14:56.388Z,75161.6
2022-10-17T11:15:56.510Z,75161.6
2022-10-17T11:16:56.634Z,75161.6
2022-10-17T11:17:56.766Z,75161.6
2022-10-17T11:18:56.896Z,75161.6
2022-10-17T11:19:57.022Z,75161.6
2022-10-17T11:20:57.151Z,75161.6
2022-10-17T11:21:57.284Z,78561.28
2022-10-17T11:22:57.415Z,78561.28
2022-10-17T11:23:57.543Z,78561.28
2022-10-17T11:24:57.674Z,78561.28
2022-10-17T11:25:57.799Z,78561.28
2022-10-17T11:26:57.923Z,78561.28
2022-10-17T11:28:02.250Z,78561.28
2022-10-17T11:29:05.654Z,73359.36
2022-10-17T11:30:05.915Z,73359.36
2022-10-17T11:31:07.791Z,73359.36
2022-10-17T11:32:08.378Z,74178.56
2022-10-17T11:33:08.503Z,74178.56
2022-10-17T11:34:08.630Z,74178.56
2022-10-17T11:35:08.756Z,74178.56
2022-10-17T11:36:08.895Z,74178.56
2022-10-17T11:37:09.025Z,74178.56
2022-10-17T11:38:09.155Z,74178.56
2022-10-17T11:39:09.288Z,74178.56
2022-10-17T11:40:09.423Z,74178.56
2022-10-17T11:41:09.553Z,74178.56
2022-10-17T11:42:09.675Z,73973.76
2022-10-17T11:43:09.815Z,73973.76
2022-10-17T11:44:09.942Z,73973.76
2022-10-17T11:45:10.070Z,73973.76
2022-10-17T11:46:10.215Z,73973.76
2022-10-17T11:47:10.343Z,73973.76
2022-10-17T11:48:10.468Z,81387.52
2022-10-17T11:49:10.649Z,81387.52
2022-10-17T11:52:04.627Z,81387.52
2022-10-17T11:53:05.040Z,82165.76
2022-10-17T11:54:05.338Z,82165.76
2022-10-17T11:55:05.462Z,82165.76
2022-10-17T11:56:05.590Z,82165.76
2022-10-17T11:57:05.712Z,82165.76
2022-10-17T11:58:05.841Z,82575.36
2022-10-17T11:59:05.972Z,82575.36
2022-10-17T12:00:06.118Z,82575.36
2022-10-17T12:01:06.246Z,65372.16
2022-10-17T12:02:06.372Z,50585.6
2022-10-17T12:03:06.495Z,37785.6
2022-10-17T12:04:06.672Z,29798.4
2022-10-17T12:05:07.020Z,29593.6
2022-10-17T12:06:07.144Z,51568.64
2022-10-17T12:07:07.291Z,64184.32
2022-10-17T12:08:07.435Z,71598.08
2022-10-17T12:09:07.572Z,71598.08
2022-10-17T12:10:07.703Z,71598.08
2022-10-17T12:11:07.829Z,55992.32
2022-10-17T12:12:07.958Z,39198.72
2022-10-17T12:13:08.095Z,30986.24
2022-10-17T12:14:08.264Z,39587.84
2022-10-17T12:15:08.616Z,39587.84
2022-10-17T12:16:08.812Z,30781.44
2022-10-17T12:17:08.937Z,30781.44
2022-10-17T12:18:09.076Z,34385.92
2022-10-17T12:19:09.205Z,34385.92
2022-10-17T12:20:09.334Z,40796.16
2022-10-17T12:21:09.458Z,51200
2022-10-17T12:22:09.587Z,65167.36
2022-10-17T12:23:09.718Z,71761.92
2022-10-17T12:24:09.852Z,79790.08
2022-10-17T12:25:10.013Z,79790.08
2022-10-17T12:26:10.151Z,70164.48
2022-10-17T12:27:10.277Z,46776.32
2022-10-17T12:28:10.426Z,36392.96
2022-10-17T12:29:10.557Z,32583.68
2022-10-17T12:30:10.689Z,28999.68
2022-10-17T12:31:10.819Z,25784.32
2022-10-17T12:32:10.965Z,20398.08
2022-10-17T12:33:11.103Z,15994.88
2022-10-17T12:34:11.234Z,14192.64
2022-10-17T12:35:11.360Z,12595.2
2022-10-17T12:36:11.494Z,12595.2
2022-10-17T12:37:11.717Z,14397.44
2022-10-17T12:38:11.850Z,15994.88
2022-10-17T12:39:11.976Z,19998.72
2022-10-17T12:40:12.103Z,32788.48
2022-10-17T12:41:12.232Z,36188.16
2022-10-17T12:42:12.359Z,32194.56
2022-10-17T12:43:12.479Z,25600
2022-10-17T12:44:12.629Z,22384.64
2022-10-17T12:45:12.766Z,19599.36
2022-10-17T12:46:12.892Z,21585.92
2022-10-17T12:47:13.017Z,23982.08
2022-10-17T12:48:13.775Z,23982.08
2022-10-17T12:49:13.907Z,23982.08
2022-10-17T12:50:14.041Z,18595.84
2022-10-17T12:51:44.194Z,18595.84
2022-10-17T12:52:44.334Z,20797.44
2022-10-17T12:53:44.610Z,32399.36
2022-10-17T12:54:47.894Z,43376.64
2022-10-17T12:56:15.071Z,41799.68
2022-10-17T12:57:15.252Z,32194.56
2022-10-17T12:58:15.547Z,25190.4
2022-10-17T12:59:15.669Z,19998.72
2022-10-17T13:00:15.794Z,17592.32
2022-10-17T13:01:24.005Z,15595.52
2022-10-17T13:02:25.331Z,13998.08
2022-10-17T13:03:25.453Z,13998.08
2022-10-17T13:04:25.587Z,17397.76
2022-10-17T13:05:25.787Z,26992.64
2022-10-17T13:06:25.927Z,35983.36
2022-10-17T13:07:26.061Z,39997.44
2022-10-17T13:08:26.503Z,39997.44
2022-10-17T13:09:26.627Z,39997.44
2022-10-17T13:10:28.821Z,49397.76
2022-10-17T13:11:28.974Z,54763.52
2022-10-17T13:12:29.307Z,54763.52
2022-10-17T13:13:30.354Z,48783.36